createdAt,value
2018-09-27T00:02:15.339Z,59.67
2018-09-27T00:04:43.928Z,59.72
2018-09-27T00:07:12.603Z,59.46
2018-09-27T00:09:41.224Z,59.81
2018-09-27T00:12:09.896Z,59.74
2018-09-27T00:14:38.515Z,58.68
2018-09-27T00:17:07.087Z,57.74
2018-09-27T00:19:35.730Z,57.89
2018-09-27T00:22:04.385Z,57.28
2018-09-27T00:24:32.967Z,59.43
2018-09-27T00:27:01.597Z,59.48
2018-09-27T00:29:30.255Z,60.01
2018-09-27T00:31:58.819Z,60.37
2018-09-27T00:34:27.456Z,60.20
2018-09-27T00:36:56.184Z,59.89
2018-09-27T00:39:24.792Z,59.26
2018-09-27T00:41:53.395Z,58.20
2018-09-27T00:44:22.027Z,58.66
2018-09-27T00:46:50.608Z,58.53
2018-09-27T00:49:19.197Z,58.19
2018-09-27T00:51:47.808Z,58.31
2018-09-27T00:54:16.554Z,58.79
2018-09-27T00:56:45.132Z,58.29
2018-09-27T00:59:14.066Z,58.47
2018-09-27T01:01:43.101Z,58.33
2018-09-27T01:04:11.691Z,58.43
2018-09-27T01:06:40.411Z,58.22
2018-09-27T01:09:10.439Z,57.62
2018-09-27T01:11:39.461Z,57.83
2018-09-27T01:14:08.077Z,57.33
2018-09-27T01:16:36.659Z,56.89
2018-09-27T01:19:05.323Z,57.39
2018-09-27T01:21:33.903Z,57.74
2018-09-27T01:24:02.495Z,58.47
2018-09-27T01:26:31.107Z,58.43
2018-09-27T01:29:00.125Z,59.45
2018-09-27T01:31:28.854Z,58.86
2018-09-27T01:33:57.831Z,59.37
2018-09-27T01:36:26.432Z,59.00
2018-09-27T01:38:55.031Z,58.93
2018-09-27T01:41:23.882Z,59.08
2018-09-27T01:43:52.444Z,59.14
2018-09-27T01:46:20.998Z,59.20
2018-09-27T01:48:49.848Z,59.44
2018-09-27T01:51:18.672Z,59.73
2018-09-27T01:53:47.229Z,59.78
2018-09-27T01:56:15.847Z,60.37
2018-09-27T01:58:44.429Z,60.37
2018-09-27T02:01:13.008Z,60.59
2018-09-27T02:03:41.641Z,60.07
2018-09-27T02:06:10.236Z,60.96
2018-09-27T02:08:39.150Z,60.23
2018-09-27T02:11:07.909Z,60.63
2018-09-27T02:13:36.496Z,60.82
2018-09-27T02:16:05.104Z,60.87
2018-09-27T02:18:33.773Z,60.66
2018-09-27T02:21:02.336Z,60.71
2018-09-27T02:23:31.291Z,60.71
2018-09-27T02:25:59.964Z,60.94
2018-09-27T02:28:28.625Z,60.76
2018-09-27T02:30:57.201Z,60.19
2018-09-27T02:33:26.156Z,60.34
2018-09-27T02:35:54.736Z,60.30
2018-09-27T02:38:23.344Z,61.01
2018-09-27T02:40:51.980Z,60.95
2018-09-27T02:43:20.564Z,60.30
2018-09-27T02:45:49.137Z,60.75
2018-09-27T02:48:17.749Z,60.37
2018-09-27T02:50:46.363Z,60.69
2018-09-27T02:53:14.968Z,60.72
2018-09-27T02:55:43.639Z,60.91
2018-09-27T02:58:12.232Z,60.25
2018-09-27T03:00:40.988Z,60.76
2018-09-27T03:03:09.636Z,60.68
2018-09-27T03:05:38.187Z,61.22
2018-09-27T03:08:06.828Z,60.94
2018-09-27T03:10:35.503Z,60.93
2018-09-27T03:13:04.585Z,61.80
2018-09-27T03:15:33.204Z,61.34
2018-09-27T03:18:01.819Z,60.90
2018-09-27T03:20:30.410Z,60.98
2018-09-27T03:22:58.983Z,60.85
2018-09-27T03:25:27.636Z,60.94
2018-09-27T03:27:56.248Z,61.31
2018-09-27T03:30:25.105Z,61.64
2018-09-27T03:32:53.836Z,61.66
2018-09-27T03:35:22.422Z,61.01
2018-09-27T03:37:51.011Z,61.76
2018-09-27T03:40:19.938Z,61.65
2018-09-27T03:42:48.450Z,61.21
2018-09-27T03:45:17.047Z,61.36
2018-09-27T03:47:45.668Z,61.54
2018-09-27T03:50:14.243Z,61.39
2018-09-27T03:52:42.843Z,61.27
2018-09-27T03:55:11.541Z,61.20
2018-09-27T03:57:40.135Z,61.16
2018-09-27T04:00:09.084Z,61.09
2018-09-27T04:02:37.702Z,61.79
2018-09-27T04:05:06.350Z,61.76
2018-09-27T04:07:39.388Z,61.64
2018-09-27T04:10:08.001Z,61.80
2018-09-27T04:12:36.624Z,61.57
2018-09-27T04:15:05.950Z,61.21
2018-09-27T04:17:34.522Z,61.52
2018-09-27T04:20:03.277Z,61.18
2018-09-27T04:22:32.567Z,61.17
2018-09-27T04:25:01.127Z,60.89
2018-09-27T04:27:30.311Z,61.18
2018-09-27T04:29:59.072Z,61.08
2018-09-27T04:32:27.659Z,61.66
2018-09-27T04:34:56.247Z,61.28
2018-09-27T04:37:24.880Z,61.92
2018-09-27T04:39:53.474Z,61.55
2018-09-27T04:42:22.172Z,61.61
2018-09-27T04:44:50.852Z,61.72
2018-09-27T04:47:19.433Z,61.57
2018-09-27T04:49:48.020Z,61.39
2018-09-27T04:52:16.724Z,61.10
2018-09-27T04:54:45.374Z,61.44
2018-09-27T04:57:13.951Z,60.80
2018-09-27T04:59:42.693Z,61.34
2018-09-27T05:02:11.319Z,61.42
2018-09-27T05:04:40.293Z,61.19
2018-09-27T05:07:09.012Z,60.99
2018-09-27T05:09:37.960Z,60.76
2018-09-27T05:12:06.982Z,60.73
2018-09-27T05:14:35.592Z,61.12
2018-09-27T05:17:04.788Z,60.22
2018-09-27T05:19:33.471Z,60.74
2018-09-27T05:22:02.179Z,60.23
2018-09-27T05:24:30.771Z,60.33
2018-09-27T05:26:59.384Z,60.25
2018-09-27T05:29:28.030Z,60.17
2018-09-27T05:31:56.609Z,60.59
2018-09-27T05:34:25.202Z,60.98
2018-09-27T05:36:53.979Z,60.89
2018-09-27T05:39:22.576Z,60.77
2018-09-27T05:41:51.191Z,60.85
2018-09-27T05:44:19.839Z,60.44
2018-09-27T05:46:48.473Z,61.08
2018-09-27T05:49:17.073Z,60.49
2018-09-27T05:51:46.952Z,60.80
2018-09-27T05:54:15.579Z,60.83
2018-09-27T05:56:44.172Z,60.42
2018-09-27T05:59:12.876Z,59.44
2018-09-27T06:01:41.537Z,59.03
2018-09-27T06:04:10.160Z,58.44
2018-09-27T06:06:39.037Z,57.49
2018-09-27T06:09:10.431Z,57.38
2018-09-27T06:11:39.226Z,57.02
2018-09-27T06:14:08.372Z,56.25
2018-09-27T06:16:38.302Z,56.01
2018-09-27T06:19:07.472Z,55.45
2018-09-27T06:21:36.078Z,54.95
2018-09-27T06:24:04.680Z,54.34
2018-09-27T06:26:33.384Z,54.45
2018-09-27T06:29:01.968Z,54.62
2018-09-27T06:31:30.530Z,54.75
2018-09-27T06:33:59.487Z,54.27
2018-09-27T06:36:28.488Z,53.77
2018-09-27T06:38:57.504Z,53.56
2018-09-27T06:41:26.486Z,52.62
2018-09-27T06:43:55.100Z,52.19
2018-09-27T06:46:23.691Z,51.99
2018-09-27T06:48:52.407Z,51.63
2018-09-27T06:51:20.933Z,51.04
2018-09-27T06:53:49.539Z,50.86
2018-09-27T06:56:18.150Z,51.19
2018-09-27T06:58:46.708Z,51.25
2018-09-27T07:01:15.280Z,50.90
2018-09-27T07:03:43.992Z,51.38
2018-09-27T07:06:12.584Z,50.50
2018-09-27T07:08:41.238Z,49.94
2018-09-27T07:11:10.254Z,49.40
2018-09-27T07:13:38.839Z,48.68
2018-09-27T07:16:07.788Z,47.30
2018-09-27T07:18:36.426Z,45.35
2018-09-27T07:21:05.036Z,45.20
2018-09-27T07:23:33.613Z,44.38
2018-09-27T07:26:02.843Z,42.81
2018-09-27T07:28:31.468Z,42.43
2018-09-27T07:31:00.072Z,40.98
2018-09-27T07:33:28.793Z,39.66
2018-09-27T07:35:57.460Z,39.09
2018-09-27T07:38:26.143Z,38.88
2018-09-27T07:40:54.825Z,38.70
2018-09-27T07:43:23.418Z,38.09
2018-09-27T07:45:52.103Z,37.75
2018-09-27T07:48:20.765Z,37.64
2018-09-27T07:50:49.336Z,37.26
2018-09-27T07:53:17.928Z,37.26
2018-09-27T07:55:46.707Z,37.33
2018-09-27T07:58:15.299Z,37.64
2018-09-27T08:00:43.904Z,37.08
2018-09-27T08:03:12.684Z,37.36
2018-09-27T08:05:41.215Z,37.59
2018-09-27T08:08:09.800Z,37.12
2018-09-27T08:10:38.487Z,37.54
2018-09-27T08:13:07.108Z,36.56
2018-09-27T08:15:35.679Z,36.37
2018-09-27T08:18:04.594Z,36.24
2018-09-27T08:20:33.218Z,36.06
2018-09-27T08:23:01.812Z,35.73
2018-09-27T08:25:30.424Z,35.96
2018-09-27T08:27:59.008Z,36.18
2018-09-27T08:30:27.641Z,35.64
2018-09-27T08:32:56.611Z,35.08
2018-09-27T08:35:25.228Z,34.81
2018-09-27T08:37:53.804Z,34.17
2018-09-27T08:40:22.584Z,33.90
2018-09-27T08:42:51.188Z,32.79
2018-09-27T08:45:19.978Z,32.41
2018-09-27T08:47:48.824Z,31.67
2018-09-27T08:50:17.426Z,31.28
2018-09-27T08:52:46.056Z,31.44
2018-09-27T08:55:14.798Z,31.06
2018-09-27T08:57:43.526Z,30.90
2018-09-27T09:00:12.053Z,30.44
2018-09-27T09:02:40.655Z,30.69
2018-09-27T09:05:09.334Z,30.27
2018-09-27T09:07:38.007Z,30.16
2018-09-27T09:10:06.712Z,29.94
2018-09-27T09:12:35.321Z,29.78
2018-09-27T09:15:03.974Z,29.44
2018-09-27T09:17:32.695Z,28.93
2018-09-27T09:20:01.301Z,28.44
2018-09-27T09:22:29.923Z,28.25
2018-09-27T09:24:58.565Z,27.61
2018-09-27T09:27:27.297Z,27.04
2018-09-27T09:29:55.904Z,26.39
2018-09-27T09:32:24.582Z,25.78
2018-09-27T09:34:53.177Z,25.45
2018-09-27T09:37:21.797Z,25.11
2018-09-27T09:39:50.424Z,24.77
2018-09-27T09:42:19.008Z,24.63
2018-09-27T09:44:47.608Z,24.16
2018-09-27T09:47:16.339Z,23.64
2018-09-27T09:49:44.918Z,23.35
2018-09-27T09:52:13.508Z,22.67
2018-09-27T09:54:42.577Z,23.18
2018-09-27T09:57:11.184Z,22.41
2018-09-27T09:59:39.787Z,21.63
2018-09-27T10:02:08.402Z,22.32
2018-09-27T10:04:37.003Z,22.11
2018-09-27T10:07:05.640Z,21.06
2018-09-27T10:09:34.336Z,21.28
2018-09-27T10:12:02.907Z,20.36
2018-09-27T10:14:31.556Z,19.88
2018-09-27T10:17:00.227Z,19.49
2018-09-27T10:19:28.823Z,19.62
2018-09-27T10:21:57.419Z,19.29
2018-09-27T10:24:26.143Z,19.39
2018-09-27T10:26:54.779Z,20.02
2018-09-27T10:29:23.371Z,19.55
2018-09-27T10:31:52.004Z,20.19
2018-09-27T10:34:20.611Z,20.06
2018-09-27T10:36:49.180Z,20.12
2018-09-27T10:39:18.040Z,20.42
2018-09-27T10:41:46.619Z,19.99
2018-09-27T10:44:15.253Z,21.08
2018-09-27T10:46:43.859Z,20.25
2018-09-27T10:49:12.439Z,20.82
2018-09-27T10:51:41.044Z,21.43
2018-09-27T10:54:09.748Z,22.11
2018-09-27T10:56:38.336Z,22.12
2018-09-27T10:59:06.991Z,23.04
2018-09-27T11:01:35.680Z,23.91
2018-09-27T11:04:04.333Z,24.04
2018-09-27T11:06:32.859Z,25.42
2018-09-27T11:09:01.555Z,25.75
2018-09-27T11:11:30.231Z,25.63
2018-09-27T11:13:58.780Z,24.00
2018-09-27T11:16:27.433Z,23.43
2018-09-27T11:18:55.968Z,22.49
2018-09-27T11:21:24.559Z,20.08
2018-09-27T11:23:53.284Z,16.73
2018-09-27T11:26:21.888Z,16.10
2018-09-27T11:28:56.062Z,14.24
2018-09-27T11:31:29.907Z,13.68
2018-09-27T11:33:58.640Z,12.93
2018-09-27T11:36:27.287Z,11.81
2018-09-27T11:38:55.856Z,11.80
2018-09-27T11:41:24.874Z,14.07
2018-09-27T11:43:53.543Z,14.73
2018-09-27T11:46:22.109Z,13.09
2018-09-27T11:48:50.839Z,12.56
2018-09-27T11:51:19.496Z,13.18
2018-09-27T11:53:48.102Z,12.23
2018-09-27T11:56:16.777Z,11.81
2018-09-27T11:58:45.364Z,12.67
2018-09-27T12:01:13.981Z,13.48
2018-09-27T12:03:42.603Z,14.56
2018-09-27T12:06:11.185Z,17.95
2018-09-27T12:08:39.776Z,19.67
2018-09-27T12:11:08.419Z,21.71
2018-09-27T12:13:38.016Z,22.49
2018-09-27T12:16:07.328Z,24.17
2018-09-27T12:18:36.000Z,24.55
2018-09-27T12:21:04.628Z,25.12
2018-09-27T12:23:33.221Z,25.43
2018-09-27T12:26:01.940Z,25.78
2018-09-27T12:28:30.512Z,26.05
2018-09-27T12:30:59.196Z,26.60
2018-09-27T12:33:27.876Z,26.26
2018-09-27T12:35:56.469Z,25.69
2018-09-27T12:38:25.115Z,26.29
2018-09-27T12:40:54.464Z,26.57
2018-09-27T12:43:23.068Z,25.92
2018-09-27T12:45:51.698Z,25.93
2018-09-27T12:48:20.460Z,26.24
2018-09-27T12:50:49.015Z,26.43
2018-09-27T12:53:17.724Z,27.06
2018-09-27T12:55:46.320Z,26.77
2018-09-27T12:58:14.915Z,27.10
2018-09-27T13:00:43.523Z,27.80
2018-09-27T13:03:12.134Z,28.54
2018-09-27T13:05:40.748Z,27.97
2018-09-27T13:08:09.760Z,27.65
2018-09-27T13:10:38.417Z,26.98
2018-09-27T13:13:07.041Z,27.56
2018-09-27T13:15:35.639Z,28.10
2018-09-27T13:18:04.312Z,27.39
2018-09-27T13:20:33.003Z,28.29
2018-09-27T13:23:01.571Z,28.63
2018-09-27T13:25:30.254Z,28.06
2018-09-27T13:27:58.898Z,29.15
2018-09-27T13:30:27.515Z,29.38
2018-09-27T13:32:56.250Z,28.71
2018-09-27T13:35:24.861Z,28.68
2018-09-27T13:37:53.445Z,28.19
2018-09-27T13:40:22.168Z,28.61
2018-09-27T13:42:50.823Z,28.48
2018-09-27T13:45:19.433Z,28.10
2018-09-27T13:47:48.080Z,27.97
2018-09-27T13:50:16.769Z,27.53
2018-09-27T13:52:45.376Z,28.30
2018-09-27T13:55:13.994Z,28.99
2018-09-27T13:57:42.623Z,28.12
2018-09-27T14:00:11.498Z,27.44
2018-09-27T14:02:40.543Z,28.01
2018-09-27T14:05:09.197Z,27.76
2018-09-27T14:07:37.771Z,27.39
2018-09-27T14:10:06.468Z,27.21
2018-09-27T14:12:35.074Z,27.73
2018-09-27T14:15:03.733Z,28.03
2018-09-27T14:17:33.044Z,27.83
2018-09-27T14:20:01.709Z,27.59
2018-09-27T14:22:30.272Z,26.75
2018-09-27T14:24:59.032Z,26.83
2018-09-27T14:27:27.721Z,26.43
2018-09-27T14:29:56.400Z,27.32
2018-09-27T14:32:25.212Z,27.09
2018-09-27T14:34:53.780Z,26.67
2018-09-27T14:37:22.380Z,26.79
2018-09-27T14:39:51.088Z,26.33
2018-09-27T14:42:19.664Z,26.92
2018-09-27T14:44:48.247Z,26.12
2018-09-27T14:47:16.952Z,26.08
2018-09-27T14:49:45.532Z,26.31
2018-09-27T14:52:14.128Z,26.14
2018-09-27T14:54:43.225Z,26.18
2018-09-27T14:57:11.872Z,26.04
2018-09-27T14:59:40.517Z,26.32
2018-09-27T15:02:09.331Z,25.68
2018-09-27T15:04:37.940Z,25.50
2018-09-27T15:07:06.558Z,25.02
2018-09-27T15:09:35.378Z,25.07
2018-09-27T15:12:03.908Z,24.91
2018-09-27T15:14:32.546Z,24.76
2018-09-27T15:17:01.240Z,25.60
2018-09-27T15:19:29.828Z,24.89
2018-09-27T15:21:58.488Z,24.71
2018-09-27T15:24:27.207Z,24.25
2018-09-27T15:26:55.804Z,24.90
2018-09-27T15:29:24.404Z,24.77
2018-09-27T15:31:53.232Z,24.46
2018-09-27T15:34:22.065Z,24.57
2018-09-27T15:36:50.661Z,24.98
2018-09-27T15:39:19.551Z,24.29
2018-09-27T15:41:48.168Z,24.51
2018-09-27T15:44:16.760Z,24.65
2018-09-27T15:46:45.647Z,24.27
2018-09-27T15:49:14.230Z,24.75
2018-09-27T15:51:42.857Z,23.94
2018-09-27T15:54:11.578Z,24.34
2018-09-27T15:56:40.173Z,23.88
2018-09-27T15:59:08.877Z,24.24
2018-09-27T16:01:37.597Z,24.21
2018-09-27T16:04:06.278Z,23.94
2018-09-27T16:06:34.853Z,24.26
2018-09-27T16:09:03.656Z,24.23
2018-09-27T16:11:32.324Z,24.43
2018-09-27T16:14:00.984Z,24.77
2018-09-27T16:16:29.617Z,25.18
2018-09-27T16:18:58.218Z,24.95
2018-09-27T16:21:26.847Z,25.31
2018-09-27T16:23:55.948Z,26.02
2018-09-27T16:26:24.549Z,26.25
2018-09-27T16:28:53.159Z,25.64
2018-09-27T16:31:21.780Z,24.63
2018-09-27T16:33:50.388Z,25.76
2018-09-27T16:36:19.079Z,26.03
2018-09-27T16:38:47.788Z,25.98
2018-09-27T16:41:16.400Z,27.39
2018-09-27T16:43:45.036Z,27.35
2018-09-27T16:46:13.677Z,27.58
2018-09-27T16:48:42.272Z,27.71
2018-09-27T16:51:11.807Z,27.98
2018-09-27T16:53:40.685Z,28.95
2018-09-27T16:56:09.260Z,29.10
2018-09-27T16:58:37.823Z,29.37
2018-09-27T17:01:06.809Z,28.91
2018-09-27T17:03:35.467Z,29.32
2018-09-27T17:06:04.080Z,29.98
2018-09-27T17:08:32.913Z,30.27
2018-09-27T17:11:01.548Z,30.24
2018-09-27T17:13:30.120Z,30.37
2018-09-27T17:15:58.824Z,29.94
2018-09-27T17:18:27.438Z,29.87
2018-09-27T17:20:56.051Z,30.04
2018-09-27T17:23:24.807Z,29.93
2018-09-27T17:25:53.374Z,30.52
2018-09-27T17:28:22.013Z,30.35
2018-09-27T17:30:50.697Z,31.30
2018-09-27T17:33:19.388Z,31.52
2018-09-27T17:35:47.937Z,32.04
2018-09-27T17:38:16.584Z,33.38
2018-09-27T17:40:45.276Z,33.39
2018-09-27T17:43:13.881Z,34.28
2018-09-27T17:45:42.592Z,33.88
2018-09-27T17:48:11.219Z,33.88
2018-09-27T17:50:39.852Z,34.75
2018-09-27T17:53:08.709Z,35.47
2018-09-27T17:55:37.279Z,34.70
2018-09-27T17:58:05.865Z,34.98
2018-09-27T18:00:34.570Z,35.42
2018-09-27T18:03:03.252Z,35.93
2018-09-27T18:05:31.895Z,36.96
2018-09-27T18:08:00.890Z,37.14
2018-09-27T18:10:29.545Z,37.17
2018-09-27T18:12:58.112Z,36.44
2018-09-27T18:15:26.817Z,36.12
2018-09-27T18:17:55.431Z,36.50
2018-09-27T18:20:24.074Z,36.65
2018-09-27T18:22:52.760Z,37.25
2018-09-27T18:25:21.367Z,37.39
2018-09-27T18:27:49.947Z,37.65
2018-09-27T18:30:18.668Z,38.08
2018-09-27T18:32:47.248Z,38.79
2018-09-27T18:35:15.829Z,38.62
2018-09-27T18:37:44.564Z,38.47
2018-09-27T18:40:13.509Z,39.22
2018-09-27T18:42:42.069Z,39.09
2018-09-27T18:45:10.789Z,40.03
2018-09-27T18:47:39.384Z,40.31
2018-09-27T18:50:08.484Z,40.35
2018-09-27T18:52:37.228Z,40.47
2018-09-27T18:55:05.927Z,41.24
2018-09-27T18:57:34.488Z,41.46
2018-09-27T19:00:03.236Z,41.25
2018-09-27T19:02:31.852Z,40.98
2018-09-27T19:05:00.460Z,41.50
2018-09-27T19:07:29.101Z,41.74
2018-09-27T19:09:57.713Z,41.69
2018-09-27T19:12:26.424Z,41.95
2018-09-27T19:14:55.412Z,41.90
2018-09-27T19:17:24.044Z,42.19
2018-09-27T19:19:52.661Z,42.21
2018-09-27T19:22:21.401Z,42.68
2018-09-27T19:24:50.028Z,43.00
2018-09-27T19:27:18.616Z,42.94
2018-09-27T19:29:47.634Z,42.85
2018-09-27T19:32:16.307Z,43.21
2018-09-27T19:34:44.948Z,42.94
2018-09-27T19:37:13.572Z,43.18
2018-09-27T19:39:42.176Z,43.17
2018-09-27T19:42:10.776Z,43.24
2018-09-27T19:44:39.732Z,43.51
2018-09-27T19:47:08.341Z,43.00
2018-09-27T19:49:36.940Z,43.36
2018-09-27T19:52:05.702Z,43.62
2018-09-27T19:54:34.295Z,44.27
2018-09-27T19:57:02.928Z,44.54
2018-09-27T19:59:31.693Z,45.45
2018-09-27T20:02:00.335Z,45.96
2018-09-27T20:04:28.992Z,46.11
2018-09-27T20:06:57.675Z,46.73
2018-09-27T20:09:26.285Z,46.84
2018-09-27T20:11:54.914Z,46.87
2018-09-27T20:14:23.917Z,46.89
2018-09-27T20:16:52.527Z,46.80
2018-09-27T20:19:21.236Z,46.60
2018-09-27T20:21:50.508Z,46.48
2018-09-27T20:24:19.103Z,46.43
2018-09-27T20:26:47.715Z,46.55
2018-09-27T20:29:16.420Z,47.16
2018-09-27T20:31:45.219Z,47.63
2018-09-27T20:34:14.285Z,47.94
2018-09-27T20:36:43.316Z,48.41
2018-09-27T20:39:12.454Z,48.79
2018-09-27T20:41:41.552Z,48.91
2018-09-27T20:44:10.188Z,48.83
2018-09-27T20:46:38.795Z,49.10
2018-09-27T20:49:07.462Z,49.55
2018-09-27T20:51:36.291Z,49.76
2018-09-27T20:54:04.906Z,49.92
2018-09-27T20:56:33.504Z,50.48
2018-09-27T20:59:02.169Z,50.43
2018-09-27T21:01:30.907Z,50.73
2018-09-27T21:03:59.464Z,51.27
2018-09-27T21:06:28.155Z,51.44
2018-09-27T21:08:56.712Z,51.18
2018-09-27T21:11:25.432Z,51.74
2018-09-27T21:13:54.119Z,51.94
2018-09-27T21:16:22.702Z,51.69
2018-09-27T21:18:51.648Z,52.01
2018-09-27T21:21:20.307Z,51.79
2018-09-27T21:23:48.888Z,52.44
2018-09-27T21:26:17.640Z,51.99
2018-09-27T21:28:46.307Z,52.14
2018-09-27T21:31:14.896Z,52.58
2018-09-27T21:33:43.449Z,52.36
2018-09-27T21:36:12.043Z,52.67
2018-09-27T21:38:40.648Z,52.63
2018-09-27T21:41:09.327Z,53.22
2018-09-27T21:43:38.017Z,52.52
2018-09-27T21:46:06.620Z,52.85
2018-09-27T21:48:35.205Z,53.10
2018-09-27T21:51:03.791Z,53.33
2018-09-27T21:53:32.405Z,53.22
2018-09-27T21:56:00.955Z,53.20
2018-09-27T21:58:29.739Z,53.79
2018-09-27T22:00:58.389Z,53.40
2018-09-27T22:03:27.518Z,53.82
2018-09-27T22:05:56.183Z,53.79
2018-09-27T22:08:24.975Z,53.88
2018-09-27T22:10:54.015Z,53.58
2018-09-27T22:13:22.684Z,53.99
2018-09-27T22:15:51.419Z,54.12
2018-09-27T22:18:20.011Z,54.66
2018-09-27T22:20:48.852Z,54.34
2018-09-27T22:23:17.427Z,54.01
2018-09-27T22:25:45.976Z,54.61
2018-09-27T22:28:14.691Z,54.97
2018-09-27T22:30:43.268Z,55.34
2018-09-27T22:33:11.840Z,55.47
2018-09-27T22:35:40.614Z,55.40
2018-09-27T22:38:09.180Z,55.88
2018-09-27T22:40:37.746Z,55.76
2018-09-27T22:43:06.355Z,55.04
2018-09-27T22:45:34.922Z,55.07
2018-09-27T22:48:03.592Z,55.65
2018-09-27T22:50:32.263Z,55.37
2018-09-27T22:53:00.834Z,55.79
2018-09-27T22:55:29.811Z,55.65
2018-09-27T22:57:58.463Z,55.12
2018-09-27T23:00:27.271Z,55.85
2018-09-27T23:02:56.037Z,55.48
2018-09-27T23:05:24.856Z,54.71
2018-09-27T23:07:53.703Z,55.07
2018-09-27T23:10:22.273Z,55.40
2018-09-27T23:12:51.073Z,55.36
2018-09-27T23:15:19.614Z,55.82
2018-09-27T23:17:48.171Z,55.46
2018-09-27T23:20:16.872Z,55.46
2018-09-27T23:22:49.513Z,55.59
2018-09-27T23:25:23.724Z,56.03
2018-09-27T23:27:52.744Z,55.56
2018-09-27T23:30:21.367Z,55.96
2018-09-27T23:32:49.986Z,55.89
2018-09-27T23:35:18.534Z,56.08
2018-09-27T23:37:47.260Z,56.10
2018-09-27T23:40:16.623Z,56.21
2018-09-27T23:42:45.204Z,56.33
2018-09-27T23:45:13.826Z,56.12
2018-09-27T23:47:42.536Z,56.39
2018-09-27T23:50:11.177Z,56.29
2018-09-27T23:52:39.756Z,56.89
2018-09-27T23:55:08.388Z,56.77
2018-09-27T23:57:36.973Z,57.19
